Time;durP1;ratioP1;P1;durP2;ratioP2;P2;SDS_P1;SDS_P2;PMS_P1;PMS_P2;Temp;Humidity;BMP_temperature;BMP_pressure;BME280_temperature;BME280_humidity;BME280_pressure;Samples;Min_cycle;Max_cycle;Signal;HPM_P1;HPM_P2
2023/01/07 00:01:11;;;;;;;21.80;19.70;;;10.40;99.90;;;;;;5100161;28;20044;-62
2023/01/07 00:03:37;;;;;;;20.05;18.05;;;10.50;99.90;;;;;;5098890;28;20032;-62
2023/01/07 00:06:07;;;;;;;20.80;18.70;;;10.60;99.90;;;;;;5100035;28;20039;-61
2023/01/07 00:08:35;;;;;;;21.25;19.05;;;10.60;99.90;;;;;;5090064;28;20044;-62
2023/01/07 00:11:02;;;;;;;21.70;19.50;;;10.60;99.90;;;;;;5091804;28;20050;-63
2023/01/07 00:13:28;;;;;;;21.35;19.25;;;10.50;99.90;;;;;;5097316;28;20036;-62
2023/01/07 00:15:58;;;;;;;22.05;19.95;;;10.70;99.90;;;;;;5095618;28;20627;-62
2023/01/07 00:18:23;;;;;;;21.77;19.70;;;10.50;99.90;;;;;;5094406;28;20040;-61
2023/01/07 00:20:49;;;;;;;21.10;19.10;;;10.60;99.90;;;;;;5094568;28;20129;-63
2023/01/07 00:23:45;;;;;;;22.67;20.17;;;10.70;99.90;;;;;;5093186;28;20040;-64
2023/01/07 00:26:19;;;;;;;22.85;20.55;;;10.80;99.90;;;;;;5070295;28;20134;-63
2023/01/07 00:28:47;;;;;;;23.02;20.92;;;10.70;99.90;;;;;;5097240;28;20040;-63
2023/01/07 00:31:14;;;;;;;21.05;19.02;;;10.70;99.90;;;;;;5074664;28;20507;-63
2023/01/07 00:36:20;;;;;;;22.55;20.55;;;10.70;99.90;;;;;;5096024;28;20044;-63
2023/01/07 00:38:46;;;;;;;23.30;21.10;;;10.80;99.90;;;;;;5102059;28;20346;-63
2023/01/07 00:41:11;;;;;;;22.58;20.58;;;10.80;99.90;;;;;;5095212;28;20042;-63
2023/01/07 00:43:38;;;;;;;22.88;20.67;;;10.70;99.90;;;;;;5100518;28;20035;-64
2023/01/07 00:46:05;;;;;;;21.45;19.55;;;10.80;99.90;;;;;;5069688;28;20468;-63
2023/01/07 00:48:31;;;;;;;22.70;20.58;;;10.80;99.90;;;;;;5099237;28;20035;-63
2023/01/07 00:50:56;;;;;;;21.92;19.83;;;10.90;99.90;;;;;;5074103;28;20116;-63
2023/01/07 00:53:23;;;;;;;22.25;20.23;;;10.70;99.90;;;;;;5102268;28;20391;-63
2023/01/07 00:55:50;;;;;;;22.02;19.73;;;10.70;99.90;;;;;;5082496;28;20178;-62
2023/01/07 00:58:20;;;;;;;21.83;19.63;;;10.80;99.90;;;;;;5101029;28;20063;-62
2023/01/07 01:00:45;;;;;;;21.05;19.05;;;10.80;99.90;;;;;;5099385;28;20051;-61
2023/01/07 01:03:12;;;;;;;21.45;19.42;;;10.90;99.90;;;;;;5106076;28;20027;-62
2023/01/07 01:05:38;;;;;;;21.38;19.48;;;10.80;99.90;;;;;;5095596;28;20032;-63
2023/01/07 01:08:04;;;;;;;21.48;19.38;;;10.90;99.90;;;;;;5098226;28;20081;-63
2023/01/07 01:10:29;;;;;;;19.42;17.73;;;10.90;99.90;;;;;;5101321;28;20101;-62
2023/01/07 01:12:55;;;;;;;19.73;17.73;;;10.80;99.90;;;;;;5102917;28;20466;-62
2023/01/07 01:15:26;;;;;;;19.52;17.73;;;10.80;99.90;;;;;;5098963;28;20044;-60
2023/01/07 01:17:51;;;;;;;18.83;17.13;;;10.90;99.90;;;;;;5098320;28;20093;-65
2023/01/07 01:20:18;;;;;;;19.75;17.90;;;10.90;99.90;;;;;;5097777;28;20104;-64
2023/01/07 01:22:44;;;;;;;20.25;18.38;;;10.80;99.90;;;;;;5064627;28;20033;-63
2023/01/07 01:25:10;;;;;;;19.20;17.50;;;10.80;99.90;;;;;;5100219;28;20474;-62
2023/01/07 01:27:36;;;;;;;19.70;17.70;;;10.80;99.90;;;;;;5095886;28;20036;-62
2023/01/07 01:30:09;;;;;;;18.52;16.77;;;10.80;99.90;;;;;;5080328;28;20360;-64
2023/01/07 01:32:36;;;;;;;18.47;16.73;;;10.80;99.90;;;;;;5097869;28;20380;-62
2023/01/07 01:35:01;;;;;;;18.63;16.92;;;10.90;99.90;;;;;;5086971;28;20802;-63
2023/01/07 01:37:27;;;;;;;19.35;17.55;;;10.80;99.90;;;;;;5097316;28;20127;-62
2023/01/07 01:39:52;;;;;;;18.55;16.88;;;10.90;99.90;;;;;;5098301;28;20088;-63
2023/01/07 01:42:23;;;;;;;18.08;16.48;;;10.90;99.90;;;;;;5084856;28;20037;-62
2023/01/07 01:44:55;;;;;;;19.15;17.30;;;10.80;99.90;;;;;;5090135;28;20401;-62
2023/01/07 01:47:52;;;;;;;18.25;16.63;;;10.90;99.90;;;;;;5097190;28;20606;-62
2023/01/07 01:50:42;;;;;;;20.60;18.58;;;10.80;99.90;;;;;;5082630;28;20048;-62
2023/01/07 01:53:13;;;;;;;19.90;18.10;;;10.80;99.90;;;;;;5090274;28;20054;-62
2023/01/07 01:55:47;;;;;;;19.15;17.23;;;10.90;99.90;;;;;;5099209;28;20336;-62
2023/01/07 01:58:31;;;;;;;19.63;17.83;;;10.80;99.90;;;;;;5093750;28;20050;-62
2023/01/07 02:00:57;;;;;;;18.92;17.00;;;10.90;99.90;;;;;;5099485;28;20109;-62
2023/01/07 02:03:25;;;;;;;17.48;15.75;;;10.80;99.90;;;;;;5092595;28;20035;-62
2023/01/07 02:05:51;;;;;;;18.33;16.63;;;10.90;99.90;;;;;;5091672;28;20105;-62
2023/01/07 02:08:20;;;;;;;18.63;16.70;;;10.90;99.90;;;;;;5089254;28;20123;-60
2023/01/07 02:11:03;;;;;;;17.75;15.98;;;10.80;99.90;;;;;;5094767;28;20045;-62
2023/01/07 02:13:57;;;;;;;17.80;16.13;;;11.00;99.90;;;;;;5087512;28;20032;-64
2023/01/07 02:17:07;;;;;;;17.02;15.45;;;10.80;99.90;;;;;;5089734;28;20364;-62
2023/01/07 02:20:02;;;;;;;16.60;15.02;;;10.90;99.90;;;;;;5068309;28;20053;-62
2023/01/07 02:23:05;;;;;;;15.82;14.20;;;10.80;99.90;;;;;;5088202;28;20036;-62
2023/01/07 02:25:51;;;;;;;15.40;14.00;;;10.90;99.90;;;;;;5089866;28;20035;-63
2023/01/07 02:28:31;;;;;;;15.63;14.20;;;11.00;99.90;;;;;;5078081;28;20040;-64
2023/01/07 02:31:34;;;;;;;15.65;14.25;;;10.80;99.90;;;;;;5080317;28;20044;-63
2023/01/07 02:34:20;;;;;;;16.35;14.85;;;10.80;99.90;;;;;;5080411;28;20144;-62
2023/01/07 02:37:29;;;;;;;15.93;14.43;;;10.80;99.90;;;;;;5079266;28;20047;-62
2023/01/07 02:40:16;;;;;;;16.60;15.10;;;10.90;99.90;;;;;;5044627;28;20113;-62
2023/01/07 02:42:57;;;;;;;16.25;14.75;;;10.90;99.90;;;;;;5080190;28;20071;-63
2023/01/07 02:45:34;;;;;;;16.30;14.60;;;10.70;99.90;;;;;;5080260;28;20040;-63
2023/01/07 02:48:11;;;;;;;16.50;14.95;;;10.70;99.90;;;;;;5082170;28;20466;-62
2023/01/07 02:50:37;;;;;;;15.65;14.13;;;10.90;99.90;;;;;;5061876;28;20055;-62
2023/01/07 02:53:03;;;;;;;17.58;15.70;;;10.80;99.90;;;;;;5062418;28;20040;-63
2023/01/07 02:55:29;;;;;;;17.25;15.40;;;10.90;99.90;;;;;;5064197;28;20048;-62
2023/01/07 02:58:21;;;;;;;15.90;14.40;;;10.80;99.90;;;;;;5061093;28;20085;-61
2023/01/07 03:01:32;;;;;;;15.88;14.20;;;10.90;99.90;;;;;;5073183;28;20084;-61
2023/01/07 03:04:16;;;;;;;16.60;14.65;;;10.80;99.90;;;;;;5075466;28;20120;-61
2023/01/07 03:07:10;;;;;;;16.13;13.80;;;10.80;99.90;;;;;;5077580;28;20067;-62
2023/01/07 03:09:54;;;;;;;16.77;14.63;;;10.80;99.90;;;;;;5081403;28;20453;-62
2023/01/07 03:12:33;;;;;;;15.63;14.13;;;10.80;99.90;;;;;;5074931;28;20051;-62
2023/01/07 03:15:13;;;;;;;16.58;14.45;;;10.90;99.90;;;;;;5078755;28;20032;-61
2023/01/07 03:17:51;;;;;;;16.02;14.32;;;10.70;99.90;;;;;;5074549;28;20043;-62
2023/01/07 03:20:20;;;;;;;16.75;14.23;;;10.80;99.90;;;;;;5079512;28;20115;-62
2023/01/07 03:22:47;;;;;;;16.60;15.00;;;10.80;99.90;;;;;;5082900;28;20036;-61
2023/01/07 03:25:16;;;;;;;18.38;14.95;;;10.80;99.90;;;;;;5081461;28;20035;-63
2023/01/07 03:27:46;;;;;;;16.20;14.57;;;10.80;99.90;;;;;;5080129;28;20032;-62
2023/01/07 03:30:15;;;;;;;15.13;13.63;;;10.90;99.90;;;;;;5082486;28;21678;-61
2023/01/07 03:32:51;;;;;;;15.88;14.35;;;10.80;99.90;;;;;;5089656;28;20036;-61
2023/01/07 03:35:26;;;;;;;17.90;15.27;;;10.70;99.90;;;;;;5086127;28;20040;-61
2023/01/07 03:37:53;;;;;;;15.20;13.70;;;10.70;99.90;;;;;;5089817;28;20044;-62
2023/01/07 03:40:19;;;;;;;17.60;14.93;;;10.70;99.90;;;;;;5102118;28;20036;-63
2023/01/07 03:42:47;;;;;;;15.13;13.48;;;10.80;99.90;;;;;;5091880;28;20097;-63
2023/01/07 03:45:20;;;;;;;15.40;13.70;;;10.90;99.90;;;;;;5098654;28;20042;-63
2023/01/07 03:47:51;;;;;;;14.85;13.35;;;10.80;99.90;;;;;;5098926;28;20074;-62
2023/01/07 03:50:17;;;;;;;16.35;13.98;;;10.80;99.90;;;;;;5092789;28;20042;-61
2023/01/07 03:52:43;;;;;;;13.50;12.10;;;10.80;99.90;;;;;;5091715;28;20032;-63
2023/01/07 03:55:09;;;;;;;13.30;11.77;;;10.70;99.90;;;;;;5071605;28;20101;-62
2023/01/07 03:57:40;;;;;;;14.02;12.63;;;10.60;99.90;;;;;;5086125;28;20521;-62
2023/01/07 04:00:14;;;;;;;14.40;11.82;;;10.80;99.90;;;;;;5087222;28;20097;-62
2023/01/07 04:02:41;;;;;;;16.40;12.38;;;10.70;99.90;;;;;;5070305;28;20453;-62
2023/01/07 04:05:08;;;;;;;13.00;11.65;;;10.60;99.90;;;;;;5075768;28;20055;-61
2023/01/07 04:07:36;;;;;;;13.02;11.65;;;10.80;99.90;;;;;;5068102;28;20032;-63
2023/01/07 04:10:03;;;;;;;11.88;10.68;;;10.60;99.90;;;;;;5075724;28;20539;-64
2023/01/07 04:12:29;;;;;;;13.05;10.60;;;10.70;99.90;;;;;;5074695;28;20472;-61
2023/01/07 04:14:54;;;;;;;13.32;11.13;;;10.70;99.90;;;;;;5082865;28;20044;-63
2023/01/07 04:17:20;;;;;;;12.95;11.30;;;10.70;99.90;;;;;;5086533;28;20040;-61
2023/01/07 04:19:45;;;;;;;12.68;10.88;;;10.60;99.90;;;;;;5090405;28;20033;-61
2023/01/07 04:22:11;;;;;;;11.38;10.23;;;10.70;99.90;;;;;;5095267;28;20179;-62
2023/01/07 04:24:36;;;;;;;12.15;10.45;;;10.60;99.90;;;;;;5090427;28;20107;-63
2023/01/07 04:27:02;;;;;;;12.07;9.75;;;10.70;99.90;;;;;;5089797;28;20043;-61
2023/01/07 04:29:29;;;;;;;12.90;10.35;;;10.60;99.90;;;;;;5099588;28;20131;-61
2023/01/07 04:31:55;;;;;;;12.00;10.23;;;10.60;99.90;;;;;;5068298;28;20131;-61
2023/01/07 04:34:21;;;;;;;13.70;10.35;;;10.60;99.90;;;;;;5095253;28;20155;-63
2023/01/07 04:36:47;;;;;;;11.15;10.00;;;10.70;99.90;;;;;;5089282;28;20044;-62
2023/01/07 04:39:13;;;;;;;12.10;9.55;;;10.60;99.90;;;;;;5085604;28;20342;-63
2023/01/07 04:41:38;;;;;;;13.05;10.27;;;10.60;99.90;;;;;;5085830;28;20165;-60
2023/01/07 04:44:05;;;;;;;12.88;9.55;;;10.60;99.90;;;;;;5072553;28;20032;-61
2023/01/07 04:46:36;;;;;;;12.25;9.35;;;10.50;99.90;;;;;;5088260;28;20036;-63
2023/01/07 04:49:02;;;;;;;12.43;9.90;;;10.60;99.90;;;;;;5083117;28;20044;-63
2023/01/07 04:51:27;;;;;;;13.25;9.65;;;10.60;99.90;;;;;;5073937;28;20077;-62
2023/01/07 04:53:53;;;;;;;12.13;10.50;;;10.60;99.90;;;;;;5071671;28;20369;-63
2023/01/07 04:56:18;;;;;;;10.48;9.40;;;10.50;99.90;;;;;;5088252;28;20059;-61
2023/01/07 04:58:47;;;;;;;12.55;9.20;;;10.50;99.90;;;;;;5089701;28;20451;-61
2023/01/07 05:01:12;;;;;;;10.93;8.85;;;10.50;99.90;;;;;;5093428;28;20036;-63
2023/01/07 05:03:38;;;;;;;11.18;9.15;;;10.50;99.90;;;;;;5091712;28;20420;-63
2023/01/07 05:06:04;;;;;;;11.75;8.32;;;10.50;99.90;;;;;;5094757;28;20036;-62
2023/01/07 05:08:29;;;;;;;12.73;9.15;;;10.60;99.90;;;;;;5093939;28;20046;-59
2023/01/07 05:10:55;;;;;;;13.52;9.23;;;10.50;99.90;;;;;;5098898;28;20031;-61
2023/01/07 05:13:21;;;;;;;11.52;8.93;;;10.50;99.90;;;;;;5099275;28;20040;-61
2023/01/07 05:15:47;;;;;;;11.20;8.73;;;10.60;99.90;;;;;;5101661;28;20050;-62
2023/01/07 05:18:13;;;;;;;10.30;8.20;;;10.60;99.90;;;;;;5086895;28;20111;-63
2023/01/07 05:20:39;;;;;;;13.07;8.32;;;10.40;99.90;;;;;;5093366;28;20044;-62
2023/01/07 05:23:05;;;;;;;9.40;7.72;;;10.50;99.90;;;;;;5104096;28;20135;-62
2023/01/07 05:25:32;;;;;;;11.20;8.13;;;10.60;99.90;;;;;;5098768;28;20044;-64
2023/01/07 05:27:58;;;;;;;9.13;7.43;;;10.50;99.90;;;;;;5089996;28;20123;-63
2023/01/07 05:30:23;;;;;;;10.45;7.88;;;10.60;99.90;;;;;;5079492;28;20163;-63
2023/01/07 05:32:49;;;;;;;9.57;7.75;;;10.50;99.90;;;;;;5103805;28;20382;-64
2023/01/07 05:35:15;;;;;;;11.50;7.55;;;10.50;99.90;;;;;;5095237;28;20475;-62
2023/01/07 05:37:40;;;;;;;10.93;7.82;;;10.60;99.90;;;;;;5091975;28;20404;-61
2023/01/07 05:40:07;;;;;;;10.43;7.63;;;10.50;99.90;;;;;;5089702;28;20032;-62
2023/01/07 05:42:33;;;;;;;10.32;8.55;;;10.60;99.90;;;;;;5098185;28;20043;-63
2023/01/07 05:44:59;;;;;;;10.43;8.00;;;10.60;99.90;;;;;;5104281;28;20032;-63
2023/01/07 05:47:25;;;;;;;10.68;8.23;;;10.50;99.90;;;;;;5096466;28;20036;-64
2023/01/07 05:49:50;;;;;;;10.85;8.20;;;10.60;99.90;;;;;;5090290;28;20043;-62
2023/01/07 05:52:22;;;;;;;10.80;7.82;;;10.50;99.90;;;;;;5095444;28;20036;-61
2023/01/07 05:54:47;;;;;;;14.48;7.53;;;10.60;99.90;;;;;;5094456;28;20051;-62
2023/01/07 05:57:13;;;;;;;11.10;8.05;;;10.50;99.90;;;;;;5087491;28;20032;-62
2023/01/07 05:59:43;;;;;;;10.20;7.65;;;10.50;99.90;;;;;;5100519;28;20040;-63
2023/01/07 06:02:09;;;;;;;12.05;8.00;;;10.50;99.90;;;;;;5095909;28;20086;-62
2023/01/07 06:04:36;;;;;;;9.85;7.60;;;10.50;99.90;;;;;;5095341;28;20023;-63
2023/01/07 06:07:01;;;;;;;8.65;7.47;;;10.50;99.90;;;;;;5100705;28;20046;-62
2023/01/07 06:09:28;;;;;;;9.38;7.70;;;10.50;99.90;;;;;;5099526;28;20040;-62
2023/01/07 06:11:54;;;;;;;12.02;6.97;;;10.50;99.90;;;;;;5090972;28;20032;-62
2023/01/07 06:14:20;;;;;;;8.70;7.05;;;10.60;99.90;;;;;;5091699;28;20050;-62
2023/01/07 06:16:45;;;;;;;8.73;7.15;;;10.50;99.90;;;;;;5093844;28;20051;-62
2023/01/07 06:19:11;;;;;;;11.15;7.05;;;10.50;99.90;;;;;;5095045;28;20073;-62
2023/01/07 06:21:36;;;;;;;10.60;7.20;;;10.60;99.90;;;;;;5090363;28;20033;-62
2023/01/07 06:24:05;;;;;;;10.45;6.50;;;10.50;99.90;;;;;;5077116;28;20168;-62
2023/01/07 06:26:31;;;;;;;9.23;6.60;;;10.50;99.90;;;;;;5099371;28;20111;-63
2023/01/07 06:28:57;;;;;;;10.13;6.38;;;10.40;99.90;;;;;;5089089;28;20135;-61
2023/01/07 06:31:24;;;;;;;11.10;7.15;;;10.50;99.90;;;;;;5089629;28;20457;-62
2023/01/07 06:33:57;;;;;;;9.40;6.43;;;10.50;99.90;;;;;;5096370;28;20058;-62
2023/01/07 06:36:29;;;;;;;10.52;6.82;;;10.50;99.90;;;;;;5090515;28;20060;-62
2023/01/07 06:38:54;;;;;;;11.95;6.97;;;10.40;99.90;;;;;;5101543;28;20338;-63
2023/01/07 06:41:20;;;;;;;9.48;6.47;;;10.40;99.90;;;;;;5095941;28;20522;-63
2023/01/07 06:43:46;;;;;;;9.63;6.88;;;10.50;99.90;;;;;;5095267;28;20457;-63
2023/01/07 06:46:17;;;;;;;10.13;6.25;;;10.40;99.90;;;;;;5094765;28;20105;-63
2023/01/07 06:48:43;;;;;;;15.57;6.50;;;10.50;99.90;;;;;;5092307;28;20046;-61
2023/01/07 06:51:08;;;;;;;7.72;5.80;;;10.30;99.90;;;;;;5073640;28;20036;-60
2023/01/07 06:53:34;;;;;;;8.68;5.68;;;10.40;99.90;;;;;;5096602;28;20411;-60
2023/01/07 06:55:59;;;;;;;8.68;5.70;;;10.40;99.90;;;;;;5101122;28;20032;-62
2023/01/07 06:58:25;;;;;;;9.23;5.95;;;10.30;99.90;;;;;;5093720;28;20146;-62
2023/01/07 07:00:50;;;;;;;7.57;5.80;;;10.20;99.90;;;;;;5094254;28;20680;-63
2023/01/07 07:03:16;;;;;;;8.43;6.00;;;10.30;99.90;;;;;;5094532;28;20532;-63
2023/01/07 07:05:42;;;;;;;7.85;6.00;;;10.20;99.90;;;;;;5097807;28;20122;-63
2023/01/07 07:08:07;;;;;;;8.13;5.75;;;10.10;99.90;;;;;;5095620;28;20115;-63
2023/01/07 07:10:33;;;;;;;8.07;5.20;;;10.10;99.90;;;;;;5099000;28;20038;-64
2023/01/07 07:12:58;;;;;;;7.70;5.70;;;10.10;99.90;;;;;;5071932;28;20468;-63
2023/01/07 07:15:24;;;;;;;7.32;5.32;;;9.90;99.90;;;;;;5094991;28;20114;-61
2023/01/07 07:17:55;;;;;;;7.28;5.30;;;9.90;99.90;;;;;;5091395;28;20054;-60
2023/01/07 07:20:20;;;;;;;8.25;5.45;;;9.90;99.90;;;;;;5087548;28;20071;-60
2023/01/07 07:22:47;;;;;;;7.82;5.20;;;9.90;99.90;;;;;;5102572;28;20411;-62
2023/01/07 07:25:14;;;;;;;7.85;5.28;;;9.80;99.90;;;;;;5086244;28;20040;-63
2023/01/07 07:27:39;;;;;;;7.55;4.88;;;9.90;99.90;;;;;;5093610;28;20040;-63
2023/01/07 07:30:12;;;;;;;7.60;4.97;;;9.80;99.90;;;;;;5088394;28;20105;-62
2023/01/07 07:32:38;;;;;;;6.82;4.88;;;9.80;99.90;;;;;;5093650;28;20114;-62
2023/01/07 07:35:06;;;;;;;8.93;5.03;;;9.90;99.90;;;;;;5093239;28;20047;-60
2023/01/07 07:37:31;;;;;;;9.88;5.40;;;9.90;99.90;;;;;;5100122;28;20063;-63
2023/01/07 07:39:57;;;;;;;7.60;5.03;;;9.80;99.90;;;;;;5097141;28;20087;-62
2023/01/07 07:42:22;;;;;;;8.05;4.85;;;9.80;99.90;;;;;;5090445;28;20032;-62
2023/01/07 07:44:49;;;;;;;8.98;5.20;;;9.90;99.90;;;;;;5097939;28;20118;-63
2023/01/07 07:47:14;;;;;;;7.30;5.10;;;9.90;99.90;;;;;;5095676;28;20067;-63
2023/01/07 07:49:40;;;;;;;6.60;4.65;;;9.90;99.90;;;;;;5093217;28;20059;-63
2023/01/07 07:52:06;;;;;;;7.60;5.15;;;9.80;99.90;;;;;;5090146;28;20089;-63
2023/01/07 07:54:31;;;;;;;7.40;4.55;;;9.90;99.90;;;;;;5075028;28;20079;-63
2023/01/07 07:56:57;;;;;;;7.97;4.82;;;9.80;99.90;;;;;;5084880;28;20024;-62
2023/01/07 07:59:23;;;;;;;8.68;4.78;;;9.80;99.90;;;;;;5088956;28;20036;-61
2023/01/07 08:01:49;;;;;;;6.10;4.68;;;9.80;99.90;;;;;;5075316;28;20035;-63
2023/01/07 08:04:15;;;;;;;7.97;4.60;;;9.70;99.90;;;;;;5092149;28;20434;-63
2023/01/07 08:06:40;;;;;;;8.95;5.05;;;9.60;99.90;;;;;;5083753;28;20032;-64
2023/01/07 08:09:06;;;;;;;7.18;4.63;;;9.60;99.90;;;;;;5097528;28;20040;-63
2023/01/07 08:11:31;;;;;;;6.57;4.30;;;9.70;99.90;;;;;;5070916;28;20044;-62
2023/01/07 08:13:57;;;;;;;5.20;4.10;;;9.60;99.90;;;;;;5078656;28;20123;-61
2023/01/07 08:16:22;;;;;;;9.20;4.50;;;9.70;99.90;;;;;;5089093;28;20109;-61
2023/01/07 08:18:48;;;;;;;4.90;3.90;;;9.60;99.90;;;;;;5091972;28;20109;-61
2023/01/07 08:21:14;;;;;;;6.57;4.15;;;9.70;99.90;;;;;;5087124;28;20032;-62
2023/01/07 08:23:39;;;;;;;6.53;4.40;;;9.70;99.90;;;;;;5088174;28;20047;-62
2023/01/07 08:26:05;;;;;;;7.95;4.22;;;9.60;99.90;;;;;;5099731;28;20020;-62
2023/01/07 08:28:31;;;;;;;8.20;4.50;;;9.70;99.90;;;;;;5086869;28;20476;-63
2023/01/07 08:31:02;;;;;;;6.10;4.00;;;9.60;99.90;;;;;;5082843;28;20063;-63
2023/01/07 08:33:30;;;;;;;6.13;3.85;;;9.70;99.90;;;;;;5083089;28;20121;-62
2023/01/07 08:35:55;;;;;;;11.77;4.70;;;9.60;99.90;;;;;;5081827;28;20035;-63
2023/01/07 08:38:21;;;;;;;4.65;3.75;;;9.60;99.90;;;;;;5083629;28;20452;-61
2023/01/07 08:40:47;;;;;;;6.68;4.25;;;9.70;99.90;;;;;;5066724;28;20424;-62
2023/01/07 08:43:13;;;;;;;5.90;3.67;;;9.80;99.90;;;;;;5086829;28;20427;-61
2023/01/07 08:45:39;;;;;;;6.75;3.92;;;9.70;99.90;;;;;;5084598;28;20092;-62
2023/01/07 08:48:04;;;;;;;7.50;4.25;;;9.70;99.90;;;;;;5084779;28;20111;-62
2023/01/07 08:50:32;;;;;;;4.30;3.47;;;9.80;99.90;;;;;;5085087;28;20411;-63
2023/01/07 08:52:58;;;;;;;5.45;3.35;;;9.80;99.90;;;;;;5082722;28;20029;-63
2023/01/07 08:55:26;;;;;;;8.27;3.80;;;9.80;99.90;;;;;;5085159;28;20109;-62
2023/01/07 08:57:52;;;;;;;6.85;3.90;;;9.80;99.90;;;;;;5083295;28;20135;-64
2023/01/07 09:00:19;;;;;;;4.65;3.67;;;9.80;99.90;;;;;;5084099;28;20430;-61
2023/01/07 09:02:45;;;;;;;4.60;3.47;;;9.80;99.90;;;;;;5066171;28;20101;-61
2023/01/07 09:05:14;;;;;;;6.88;4.03;;;9.80;99.90;;;;;;5083998;28;20036;-62
2023/01/07 09:07:42;;;;;;;5.15;3.70;;;9.90;99.90;;;;;;5080286;28;20093;-62
2023/01/07 09:10:09;;;;;;;7.00;3.60;;;9.80;99.90;;;;;;5080977;28;20109;-62
2023/01/07 09:12:35;;;;;;;6.03;3.53;;;9.80;99.90;;;;;;5081253;28;20032;-60
2023/01/07 09:15:01;;;;;;;5.50;3.80;;;9.90;99.90;;;;;;5078063;28;20133;-64
2023/01/07 09:17:27;;;;;;;6.03;3.70;;;9.80;99.90;;;;;;5078233;28;20360;-64
2023/01/07 09:19:52;;;;;;;6.20;3.47;;;9.80;99.90;;;;;;5083347;28;20426;-63
2023/01/07 09:22:18;;;;;;;8.93;4.00;;;9.90;99.90;;;;;;5081711;28;20036;-63
2023/01/07 09:24:43;;;;;;;7.68;3.55;;;10.00;99.90;;;;;;5084125;28;20040;-62
2023/01/07 09:27:09;;;;;;;6.40;3.47;;;9.90;99.90;;;;;;5064240;28;20348;-64
2023/01/07 09:29:34;;;;;;;5.97;3.30;;;10.00;99.90;;;;;;5080347;28;20039;-61
2023/01/07 09:32:01;;;;;;;5.00;2.95;;;10.00;99.90;;;;;;5077392;28;20056;-60
2023/01/07 09:34:34;;;;;;;4.50;3.00;;;10.10;99.90;;;;;;5095668;28;20131;-61
2023/01/07 09:36:59;;;;;;;4.65;3.05;;;10.10;99.90;;;;;;5092576;28;20048;-62
2023/01/07 09:39:25;;;;;;;5.40;2.88;;;10.20;99.90;;;;;;5094316;28;20036;-63
2023/01/07 09:42:03;;;;;;;4.97;3.00;;;10.20;99.90;;;;;;5092290;28;20040;-61
2023/01/07 09:44:49;;;;;;;4.68;2.95;;;10.20;99.90;;;;;;5094290;28;20032;-61
2023/01/07 09:47:18;;;;;;;5.80;2.90;;;10.30;99.90;;;;;;5093863;28;20032;-64
2023/01/07 09:49:50;;;;;;;4.80;3.13;;;10.30;99.90;;;;;;5086892;28;20115;-62
2023/01/07 09:52:27;;;;;;;4.50;2.85;;;10.40;99.90;;;;;;5093088;28;20494;-61
2023/01/07 09:55:01;;;;;;;5.85;3.22;;;10.50;99.90;;;;;;5094732;28;20038;-61
2023/01/07 09:57:27;;;;;;;6.20;3.17;;;10.50;99.90;;;;;;5095369;28;20355;-62
2023/01/07 09:59:53;;;;;;;4.82;2.60;;;10.60;99.90;;;;;;5090945;28;20040;-60
2023/01/07 10:02:37;;;;;;;4.47;2.50;;;10.60;99.90;;;;;;5091306;28;20098;-63
2023/01/07 10:05:35;;;;;;;6.32;3.15;;;10.70;99.90;;;;;;5089426;28;20473;-63
2023/01/07 10:08:36;;;;;;;4.80;2.50;;;10.70;99.90;;;;;;5090584;28;20024;-63
2023/01/07 10:11:23;;;;;;;3.97;2.67;;;10.80;99.90;;;;;;5074790;28;20071;-62
2023/01/07 10:13:57;;;;;;;3.80;2.45;;;10.90;99.90;;;;;;5093440;28;20039;-62
2023/01/07 10:16:47;;;;;;;4.30;2.30;;;10.90;99.90;;;;;;5095885;28;20166;-59
2023/01/07 10:19:31;;;;;;;3.55;2.70;;;10.90;99.90;;;;;;5095493;28;20071;-60
2023/01/07 10:22:03;;;;;;;4.28;2.50;;;11.00;99.90;;;;;;5092643;28;20367;-62
2023/01/07 10:24:37;;;;;;;3.63;2.35;;;11.00;99.90;;;;;;5091063;28;20024;-61
2023/01/07 10:27:08;;;;;;;4.65;2.70;;;11.00;99.90;;;;;;5092815;28;20489;-61
2023/01/07 10:29:41;;;;;;;3.15;2.00;;;11.10;99.90;;;;;;5095621;28;20078;-61
2023/01/07 10:32:19;;;;;;;4.78;2.20;;;11.10;99.90;;;;;;5083482;28;20071;-63
2023/01/07 10:34:55;;;;;;;3.30;2.33;;;11.20;99.90;;;;;;5060417;28;20052;-61
2023/01/07 10:37:33;;;;;;;2.65;2.40;;;11.20;99.90;;;;;;5077961;28;20526;-61
2023/01/07 10:40:10;;;;;;;2.80;2.22;;;11.20;99.90;;;;;;5077755;28;20127;-61
2023/01/07 10:42:42;;;;;;;5.63;2.47;;;11.20;99.90;;;;;;5082591;28;20098;-61
2023/01/07 10:45:31;;;;;;;2.97;2.38;;;11.20;99.90;;;;;;5082160;28;20456;-61
2023/01/07 10:47:59;;;;;;;2.78;2.00;;;11.30;99.90;;;;;;5079033;28;20039;-62
2023/01/07 10:50:38;;;;;;;3.95;2.33;;;11.20;99.90;;;;;;5078545;28;20068;-62
2023/01/07 10:53:24;;;;;;;2.88;2.13;;;11.20;99.90;;;;;;5084235;28;20420;-61
2023/01/07 10:55:59;;;;;;;3.67;1.92;;;11.20;99.90;;;;;;5082218;28;20102;-61
2023/01/07 10:58:35;;;;;;;4.03;2.40;;;11.30;99.90;;;;;;5079854;28;20056;-62
2023/01/07 11:01:00;;;;;;;3.15;2.13;;;11.20;99.90;;;;;;5079704;28;20364;-63
2023/01/07 11:03:27;;;;;;;3.20;2.10;;;11.20;99.90;;;;;;5081419;28;20040;-63
2023/01/07 11:06:01;;;;;;;2.80;2.00;;;11.20;99.90;;;;;;5086595;28;20062;-62
2023/01/07 11:08:39;;;;;;;3.83;2.00;;;11.20;99.90;;;;;;5086129;28;20082;-61
2023/01/07 11:11:10;;;;;;;3.83;2.17;;;11.20;99.90;;;;;;5085226;28;20363;-62
2023/01/07 11:13:39;;;;;;;4.38;2.42;;;11.20;99.90;;;;;;5081221;28;20041;-62
2023/01/07 11:16:18;;;;;;;3.83;2.22;;;11.20;99.90;;;;;;5086839;28;20047;-62
2023/01/07 11:19:08;;;;;;;3.35;2.10;;;11.20;99.90;;;;;;5083801;28;20044;-62
2023/01/07 11:21:39;;;;;;;2.90;2.20;;;11.20;99.90;;;;;;5084334;28;20032;-61
2023/01/07 11:24:28;;;;;;;3.65;2.22;;;11.30;99.90;;;;;;5086467;28;20360;-63
2023/01/07 11:27:03;;;;;;;4.53;2.20;;;11.30;99.90;;;;;;5083578;28;20067;-62
2023/01/07 11:29:36;;;;;;;3.50;2.10;;;11.30;99.90;;;;;;5085808;28;20123;-63
2023/01/07 11:32:04;;;;;;;3.28;2.13;;;11.30;99.90;;;;;;5071638;28;20650;-62
2023/01/07 11:34:48;;;;;;;4.50;2.10;;;11.30;99.90;;;;;;5072299;28;20484;-64
2023/01/07 11:37:40;;;;;;;4.60;1.92;;;11.30;99.90;;;;;;5068232;28;20345;-62
2023/01/07 11:40:24;;;;;;;3.60;2.00;;;11.30;99.90;;;;;;5072363;28;20044;-61
2023/01/07 11:43:00;;;;;;;4.40;2.00;;;11.40;99.90;;;;;;5070578;28;20464;-64
2023/01/07 11:45:35;;;;;;;2.75;2.03;;;11.40;99.90;;;;;;5054355;28;20365;-62
2023/01/07 11:48:21;;;;;;;2.72;2.10;;;11.40;99.90;;;;;;5045463;28;20033;-63
2023/01/07 11:50:52;;;;;;;3.58;2.03;;;11.40;99.90;;;;;;5069614;28;20429;-63
2023/01/07 11:53:18;;;;;;;5.30;2.80;;;11.40;99.90;;;;;;5069578;28;20036;-62
2023/01/07 11:56:11;;;;;;;4.57;2.40;;;11.50;99.90;;;;;;5052108;28;20369;-62
2023/01/07 11:58:41;;;;;;;3.42;2.20;;;11.40;99.90;;;;;;5052379;28;20040;-61
2023/01/07 12:01:07;;;;;;;3.20;2.22;;;11.40;99.90;;;;;;5054048;28;20044;-62
2023/01/07 12:03:34;;;;;;;2.80;1.85;;;11.40;99.90;;;;;;5070921;28;20032;-63
2023/01/07 12:06:11;;;;;;;3.92;2.20;;;11.40;99.90;;;;;;5070926;28;20114;-62
2023/01/07 12:09:25;;;;;;;3.35;2.20;;;11.40;99.90;;;;;;5052131;28;20037;-63
2023/01/07 12:11:53;;;;;;;3.50;1.98;;;11.50;99.90;;;;;;5044819;28;20065;-62
2023/01/07 12:14:44;;;;;;;4.97;2.17;;;11.40;99.90;;;;;;5067974;28;20126;-62
2023/01/07 12:17:15;;;;;;;2.85;1.67;;;11.40;99.90;;;;;;5050381;28;20133;-63
2023/01/07 12:20:07;;;;;;;4.25;1.90;;;11.40;99.90;;;;;;5068928;28;20036;-63
2023/01/07 12:22:53;;;;;;;3.42;1.60;;;11.40;99.90;;;;;;5070967;28;20044;-62
2023/01/07 12:25:45;;;;;;;1.60;1.50;;;11.30;99.90;;;;;;5050878;28;20040;-63
2023/01/07 12:28:18;;;;;;;2.35;1.80;;;11.40;99.90;;;;;;5066402;28;20044;-63
2023/01/07 12:31:06;;;;;;;2.03;1.60;;;11.40;99.90;;;;;;5056439;28;20130;-61
2023/01/07 12:33:52;;;;;;;2.80;1.70;;;11.50;99.90;;;;;;5070682;28;20054;-63
2023/01/07 12:36:26;;;;;;;2.97;1.60;;;11.50;99.90;;;;;;5069687;28;20028;-63
2023/01/07 12:38:59;;;;;;;2.58;1.80;;;11.50;99.90;;;;;;5071542;28;20365;-62
2023/01/07 12:41:35;;;;;;;3.53;1.60;;;11.50;99.90;;;;;;5068196;28;20051;-62
2023/01/07 12:44:12;;;;;;;3.65;1.90;;;11.60;99.90;;;;;;5060965;28;20113;-62
2023/01/07 12:46:43;;;;;;;1.52;1.40;;;11.60;99.90;;;;;;5066703;28;20040;-63
2023/01/07 12:49:32;;;;;;;2.05;1.40;;;11.60;99.90;;;;;;5069151;28;20412;-61
2023/01/07 12:52:03;;;;;;;1.38;1.23;;;11.60;99.90;;;;;;5084397;28;20052;-63
2023/01/07 12:54:52;;;;;;;2.65;1.48;;;11.50;99.90;;;;;;5069671;28;20098;-62
2023/01/07 12:57:23;;;;;;;2.03;1.50;;;11.60;99.90;;;;;;5083126;28;20067;-63
2023/01/07 13:00:33;;;;;;;2.70;1.50;;;11.60;99.90;;;;;;5083962;28;20127;-61
2023/01/07 13:03:14;;;;;;;2.78;1.88;;;11.60;99.90;;;;;;4983696;28;20050;-61
2023/01/07 13:05:47;;;;;;;2.85;1.60;;;11.60;99.90;;;;;;5022142;28;20038;-61